Time;durP1;ratioP1;P1;durP2;ratioP2;P2;SDS_P1;SDS_P2;PMS_P1;PMS_P2;Temp;Humidity;BMP_temperature;BMP_pressure;BME280_temperature;BME280_humidity;BME280_pressure;Samples;Min_cycle;Max_cycle;Signal;HPM_P1;HPM_P2
2023/01/14 00:02:11;;;;;;;0.45;0.30;;;;;;;8.04;100.00;98931.84;7387498;19;20021;-77
2023/01/14 00:04:38;;;;;;;0.10;0.00;;;;;;;7.78;100.00;98919.03;7385689;19;20022;-78
2023/01/14 00:07:04;;;;;;;0.10;0.00;;;;;;;8.29;100.00;98919.38;7386765;19;20433;-78
2023/01/14 00:09:30;;;;;;;0.20;0.20;;;;;;;8.63;100.00;98901.94;7387182;19;20521;-78
2023/01/14 00:11:56;;;;;;;0.20;0.20;;;;;;;8.32;100.00;98893.44;7384814;19;20015;-78
2023/01/14 00:14:28;;;;;;;4.93;0.52;;;;;;;8.48;100.00;98883.81;7386770;19;20391;-78
2023/01/14 00:16:56;;;;;;;0.65;0.55;;;;;;;7.82;100.00;98873.28;7392243;19;20101;-79
2023/01/14 00:19:23;;;;;;;0.30;0.30;;;;;;;7.81;100.00;98874.53;7385896;19;20022;-78
2023/01/14 00:21:50;;;;;;;1.15;0.22;;;;;;;8.26;100.00;98867.63;7386966;19;20024;-79
2023/01/14 00:24:19;;;;;;;1.73;1.20;;;;;;;8.22;100.00;98851.19;7387466;19;20027;-79
2023/01/14 00:26:52;;;;;;;0.30;0.30;;;;;;;8.66;100.00;98850.25;7389797;19;20106;-79
2023/01/14 00:29:22;;;;;;;0.10;0.10;;;;;;;8.42;100.00;98841.38;7387345;19;20035;-79
2023/01/14 00:31:59;;;;;;;0.88;0.75;;;;;;;8.43;100.00;98826.25;7386431;19;20022;-79
2023/01/14 00:34:27;;;;;;;2.72;0.40;;;;;;;8.67;100.00;98822.00;7384861;19;20485;-79
2023/01/14 00:36:54;;;;;;;5.82;1.55;;;;;;;8.60;100.00;98816.13;7389407;19;20014;-79
2023/01/14 00:39:21;;;;;;;0.57;0.30;;;;;;;8.46;100.00;98809.41;7385592;19;20014;-79
2023/01/14 00:41:47;;;;;;;0.98;0.47;;;;;;;8.36;100.00;98794.13;7385350;19;20014;-79
2023/01/14 00:44:14;;;;;;;0.88;0.38;;;;;;;8.40;100.00;98794.72;7383633;19;20014;-78
2023/01/14 00:46:41;;;;;;;0.82;0.30;;;;;;;8.56;100.00;98785.78;7389827;19;20014;-79
2023/01/14 00:49:14;;;;;;;8.38;1.33;;;;;;;8.61;100.00;98771.22;7388307;19;20015;-79
2023/01/14 00:51:41;;;;;;;0.17;0.13;;;;;;;8.62;100.00;98767.19;7386552;19;20022;-79
2023/01/14 00:54:07;;;;;;;1.30;1.00;;;;;;;8.65;100.00;98760.66;7385161;19;20025;-79
2023/01/14 00:56:33;;;;;;;0.40;0.40;;;;;;;8.61;100.00;98754.56;7390475;19;20343;-79
2023/01/14 00:58:59;;;;;;;1.27;0.30;;;;;;;8.73;100.00;98745.09;7386406;19;20465;-78
2023/01/14 01:01:26;;;;;;;0.10;0.10;;;;;;;8.71;100.00;98732.97;7385182;19;20019;-79
2023/01/14 01:03:55;;;;;;;13.98;0.40;;;;;;;8.72;100.00;98728.94;7382584;19;20493;-79
2023/01/14 01:06:23;;;;;;;0.80;0.45;;;;;;;8.78;100.00;98724.97;7386257;19;20018;-79
2023/01/14 01:08:49;;;;;;;0.30;0.15;;;;;;;8.89;100.00;98708.41;7384457;19;20015;-79
2023/01/14 01:11:16;;;;;;;1.00;0.70;;;;;;;8.77;100.00;98695.69;7382185;19;20070;-82
2023/01/14 01:13:43;;;;;;;4.32;0.25;;;;;;;8.72;100.00;98690.84;7381710;19;20082;-78
2023/01/14 01:16:13;;;;;;;20.05;0.93;;;;;;;8.67;100.00;98686.00;7389219;19;20092;-79
2023/01/14 01:18:41;;;;;;;0.35;0.32;;;;;;;8.89;100.00;98674.34;7390076;19;20014;-79
2023/01/14 01:21:14;;;;;;;2.45;1.23;;;;;;;8.70;100.00;98671.16;7386875;19;20030;-79
2023/01/14 01:23:41;;;;;;;1.98;0.63;;;;;;;8.10;100.00;98660.19;7383898;19;20018;-79
2023/01/14 01:26:21;;;;;;;0.70;0.50;;;;;;;8.02;100.00;98642.44;7386319;19;20040;-79
2023/01/14 01:28:50;;;;;;;3.95;0.63;;;;;;;8.51;100.00;98627.59;7384697;19;20018;-79
2023/01/14 01:31:17;;;;;;;8.77;1.83;;;;;;;8.42;100.00;98630.53;7382334;19;20121;-79
2023/01/14 01:33:43;;;;;;;3.72;1.05;;;;;;;8.59;100.00;98614.78;7384824;19;20019;-79
2023/01/14 01:36:27;;;;;;;0.20;0.20;;;;;;;8.70;100.00;98587.91;7389544;19;20512;-79
2023/01/14 01:38:53;;;;;;;0.75;0.47;;;;;;;8.83;100.00;98588.25;7386127;19;20039;-79
2023/01/14 01:41:28;;;;;;;2.42;0.88;;;;;;;8.78;100.00;98574.31;7383751;19;20010;-79
2023/01/14 01:44:10;;;;;;;0.15;0.15;;;;;;;8.80;100.00;98567.03;7381880;19;20388;-79
2023/01/14 01:46:37;;;;;;;4.20;0.47;;;;;;;9.37;100.00;98557.72;7388666;19;20044;-79
2023/01/14 01:49:17;;;;;;;1.70;0.25;;;;;;;9.27;100.00;98548.84;7382997;19;20011;-80
2023/01/14 01:51:52;;;;;;;0.73;0.45;;;;;;;9.24;100.00;98544.31;7383207;19;20019;-79
2023/01/14 01:54:22;;;;;;;0.80;0.38;;;;;;;9.23;100.00;98522.56;7384475;19;20118;-79
2023/01/14 01:56:49;;;;;;;6.65;1.10;;;;;;;9.50;100.00;98519.91;7387483;19;20014;-79
2023/01/14 01:59:21;;;;;;;0.20;0.20;;;;;;;9.39;100.00;98511.53;7384728;19;20109;-79
2023/01/14 02:01:49;;;;;;;0.38;0.38;;;;;;;9.29;100.00;98506.69;7382657;19;20015;-79
2023/01/14 02:04:17;;;;;;;0.15;0.13;;;;;;;9.26;100.00;98486.22;7381545;19;20039;-81
2023/01/14 02:06:43;;;;;;;0.95;0.35;;;;;;;9.29;100.00;98478.91;7387367;19;20022;-79
2023/01/14 02:09:10;;;;;;;18.05;0.73;;;;;;;9.39;100.00;98474.66;7384132;19;20483;-79
2023/01/14 02:11:54;;;;;;;1.65;0.35;;;;;;;9.31;100.00;98462.50;7384292;19;20104;-79
2023/01/14 02:14:42;;;;;;;1.08;0.43;;;;;;;9.31;100.00;98451.41;7382300;19;20043;-79
2023/01/14 02:17:19;;;;;;;0.35;0.35;;;;;;;9.39;100.00;98444.84;7395637;19;20025;-79
2023/01/14 02:19:57;;;;;;;1.75;0.45;;;;;;;9.26;100.00;98432.69;7391098;19;20073;-79
2023/01/14 02:22:55;;;;;;;1.08;0.50;;;;;;;9.31;100.00;98418.81;7392059;19;20473;-79
2023/01/14 02:26:00;;;;;;;1.10;0.50;;;;;;;9.59;100.00;98418.88;7391478;19;20015;-79
2023/01/14 02:28:46;;;;;;;0.95;0.38;;;;;;;9.49;100.00;98395.34;7393915;19;20099;-79
2023/01/14 02:31:21;;;;;;;2.53;1.05;;;;;;;9.52;100.00;98391.56;7392360;19;20671;-79
2023/01/14 02:34:00;;;;;;;0.10;0.10;;;;;;;9.73;100.00;98373.38;7389281;19;20015;-79
2023/01/14 02:36:51;;;;;;;0.10;0.10;;;;;;;9.71;100.00;98373.13;7390988;19;20014;-80
2023/01/14 02:39:35;;;;;;;16.35;0.88;;;;;;;9.83;100.00;98355.19;7389228;19;20505;-80
2023/01/14 02:45:05;;;;;;;6.28;0.60;;;;;;;9.90;100.00;98329.63;7389702;19;20014;-79
2023/01/14 02:47:34;;;;;;;0.20;0.10;;;;;;;10.00;100.00;98319.78;7389844;19;20018;-80
2023/01/14 02:50:02;;;;;;;0.35;0.20;;;;;;;9.66;100.00;98301.59;7391972;19;20109;-80
2023/01/14 02:52:28;;;;;;;1.98;0.30;;;;;;;9.53;100.00;98299.34;7387438;19;20038;-80
2023/01/14 02:55:01;;;;;;;0.75;0.43;;;;;;;9.50;100.00;98285.72;7389624;19;20355;-80
2023/01/14 02:58:06;;;;;;;0.10;0.00;;;;;;;9.34;100.00;98276.13;7390959;19;20349;-80
2023/01/14 03:00:53;;;;;;;0.77;0.20;;;;;;;8.67;100.00;98253.09;7387582;19;20010;-80
2023/01/14 03:03:38;;;;;;;0.10;0.10;;;;;;;8.92;100.00;98257.66;7387241;19;20521;-80
2023/01/14 03:06:13;;;;;;;2.70;0.20;;;;;;;9.29;100.00;98242.81;7392365;19;20049;-80
2023/01/14 03:08:51;;;;;;;0.10;0.10;;;;;;;9.08;100.00;98231.94;7389909;19;20014;-80
2023/01/14 03:11:17;;;;;;;0.10;0.10;;;;;;;9.21;100.00;98222.34;7388125;19;20019;-79
2023/01/14 03:13:51;;;;;;;0.10;0.10;;;;;;;9.06;100.00;98206.69;7389998;19;20029;-80
2023/01/14 03:16:35;;;;;;;0.10;0.00;;;;;;;9.59;100.00;98191.75;7392998;19;20088;-80
2023/01/14 03:19:10;;;;;;;0.10;0.00;;;;;;;9.82;100.00;98186.84;7390096;19;20638;-79
2023/01/14 03:21:44;;;;;;;0.20;0.15;;;;;;;9.89;100.00;98169.66;7390640;19;20014;-80
2023/01/14 03:24:13;;;;;;;0.52;0.20;;;;;;;9.99;100.00;98161.75;7387275;19;20010;-81
2023/01/14 03:26:44;;;;;;;0.10;0.10;;;;;;;10.02;100.00;98160.75;7393309;19;20602;-80
2023/01/14 03:29:15;;;;;;;0.25;0.08;;;;;;;9.92;100.00;98149.91;7389637;19;20019;-80
2023/01/14 03:31:49;;;;;;;1.20;0.10;;;;;;;9.84;100.00;98135.03;7386436;19;20085;-80
2023/01/14 03:34:20;;;;;;;0.03;0.00;;;;;;;9.69;100.00;98112.34;7386338;19;20422;-79
2023/01/14 03:36:49;;;;;;;0.15;0.05;;;;;;;10.19;100.00;98101.00;7393240;19;20010;-79
2023/01/14 03:39:22;;;;;;;0.10;0.10;;;;;;;10.25;100.00;98085.03;7388778;19;20370;-80
2023/01/14 03:44:57;;;;;;;0.52;0.35;;;;;;;10.21;100.00;98059.50;7386626;19;20407;-80
2023/01/14 03:47:25;;;;;;;0.20;0.20;;;;;;;10.14;100.00;98046.16;7388166;19;20039;-80
2023/01/14 03:49:52;;;;;;;0.10;0.10;;;;;;;9.69;100.00;98031.00;7389907;19;20018;-80
2023/01/14 03:52:36;;;;;;;0.10;0.10;;;;;;;10.14;100.00;98029.47;7387539;19;20030;-79
2023/01/14 03:55:23;;;;;;;6.50;0.30;;;;;;;10.24;100.00;98007.66;7392008;19;20409;-80
2023/01/14 03:58:10;;;;;;;0.10;0.10;;;;;;;10.47;100.00;98009.72;7393861;19;20496;-80
2023/01/14 04:00:47;;;;;;;0.63;0.52;;;;;;;10.50;100.00;97982.91;7386793;19;20018;-80
2023/01/14 04:03:14;;;;;;;0.10;0.10;;;;;;;10.55;100.00;97977.25;7387968;19;20052;-80
2023/01/14 04:05:41;;;;;;;0.10;0.00;;;;;;;10.41;100.00;97964.50;7389487;19;20029;-79
2023/01/14 04:08:09;;;;;;;0.20;0.20;;;;;;;10.36;100.00;97929.13;7387182;19;20069;-80
2023/01/14 04:10:35;;;;;;;0.17;0.17;;;;;;;10.43;100.00;97931.34;7388592;19;20698;-80
2023/01/14 04:15:46;;;;;;;0.43;0.40;;;;;;;10.32;100.00;97900.84;7391465;19;20014;-79
2023/01/14 04:18:12;;;;;;;0.20;0.20;;;;;;;10.40;100.00;97907.34;7386925;19;20031;-79
2023/01/14 04:20:38;;;;;;;0.10;0.00;;;;;;;10.45;100.00;97886.28;7387469;19;20039;-80
2023/01/14 04:23:04;;;;;;;0.40;0.10;;;;;;;10.47;100.00;97878.19;7386513;19;20019;-79
2023/01/14 04:25:30;;;;;;;0.10;0.10;;;;;;;10.41;100.00;97869.91;7388078;19;20022;-79
2023/01/14 04:27:57;;;;;;;0.20;0.10;;;;;;;10.39;100.00;97861.31;7388912;19;20014;-80
2023/01/14 04:30:23;;;;;;;0.40;0.10;;;;;;;10.35;100.00;97833.00;7386598;19;20750;-80
2023/01/14 04:32:49;;;;;;;0.22;0.22;;;;;;;10.27;100.00;97843.22;7388188;19;20026;-79
2023/01/14 04:35:16;;;;;;;0.10;0.10;;;;;;;10.31;100.00;97827.00;7385797;19;20583;-79
2023/01/14 04:37:42;;;;;;;0.20;0.20;;;;;;;10.41;100.00;97808.69;7387121;19;20010;-78
2023/01/14 04:40:09;;;;;;;0.00;0.00;;;;;;;10.48;100.00;97813.63;7386806;19;20022;-80
2023/01/14 04:42:35;;;;;;;0.20;0.10;;;;;;;10.54;100.00;97789.31;7387192;19;20023;-80
2023/01/14 04:45:03;;;;;;;0.10;0.00;;;;;;;10.64;100.00;97776.50;7389290;19;20039;-79
2023/01/14 04:47:31;;;;;;;0.10;0.08;;;;;;;10.75;100.00;97766.50;7385653;19;20018;-80
2023/01/14 04:49:57;;;;;;;0.47;0.13;;;;;;;10.57;100.00;97771.53;7386324;19;20024;-80
2023/01/14 04:52:23;;;;;;;0.10;0.10;;;;;;;10.53;100.00;97748.06;7384154;19;20018;-79
2023/01/14 04:54:51;;;;;;;0.00;0.00;;;;;;;10.43;100.00;97739.34;7387174;19;20049;-79
2023/01/14 04:57:18;;;;;;;0.10;0.10;;;;;;;10.46;100.00;97726.41;7388425;19;20394;-79
2023/01/14 04:59:44;;;;;;;5.55;0.17;;;;;;;10.46;100.00;97718.81;7384655;19;20039;-80
2023/01/14 05:02:10;;;;;;;0.10;0.10;;;;;;;10.40;100.00;97701.44;7383580;19;20018;-79
2023/01/14 05:04:36;;;;;;;0.10;0.10;;;;;;;10.47;100.00;97700.84;7385091;19;20025;-80
2023/01/14 05:07:03;;;;;;;0.10;0.10;;;;;;;10.47;100.00;97680.59;7385239;19;20026;-80
2023/01/14 05:09:29;;;;;;;0.03;0.00;;;;;;;10.75;100.00;97667.03;7385935;19;20018;-80
2023/01/14 05:11:56;;;;;;;1.65;0.68;;;;;;;10.80;100.00;97659.88;7382861;19;20050;-80
2023/01/14 05:14:22;;;;;;;4.72;0.20;;;;;;;10.77;100.00;97649.78;7382834;19;20018;-80
2023/01/14 05:16:48;;;;;;;0.00;0.00;;;;;;;10.59;100.00;97645.75;7391472;19;20014;-83
2023/01/14 05:19:14;;;;;;;0.00;0.00;;;;;;;10.53;100.00;97631.94;7386494;19;20358;-80
2023/01/14 05:21:40;;;;;;;0.00;0.00;;;;;;;10.88;100.00;97616.94;7384035;19;20498;-80
2023/01/14 05:24:07;;;;;;;0.08;0.08;;;;;;;10.81;100.00;97608.47;7382573;19;20023;-80
2023/01/14 05:26:33;;;;;;;0.00;0.00;;;;;;;11.23;100.00;97590.75;7390421;19;20033;-79
2023/01/14 05:28:59;;;;;;;0.10;0.10;;;;;;;11.70;100.00;97591.63;7386245;19;20060;-80
2023/01/14 05:31:25;;;;;;;0.65;0.45;;;;;;;11.91;100.00;97575.72;7383995;19;20014;-79
2023/01/14 05:33:51;;;;;;;0.00;0.00;;;;;;;12.28;100.00;97554.38;7383218;19;20018;-80
2023/01/14 05:36:17;;;;;;;0.10;0.10;;;;;;;11.80;100.00;97547.34;7389403;19;20038;-80
2023/01/14 05:38:43;;;;;;;0.10;0.10;;;;;;;12.64;100.00;97538.53;7385680;19;20018;-80
2023/01/14 05:41:12;;;;;;;0.10;0.00;;;;;;;12.72;100.00;97528.16;7384616;19;20015;-80
2023/01/14 05:46:23;;;;;;;0.20;0.00;;;;;;;12.00;100.00;97515.94;7388960;19;20039;-79
2023/01/14 05:48:49;;;;;;;0.00;0.00;;;;;;;11.68;100.00;97513.34;7387641;19;20017;-79
2023/01/14 05:51:16;;;;;;;0.10;0.00;;;;;;;12.09;100.00;97487.59;7385586;19;20038;-80
2023/01/14 05:53:42;;;;;;;0.73;0.73;;;;;;;12.45;100.00;97476.56;7390115;19;20819;-80
2023/01/14 05:56:08;;;;;;;1.85;0.55;;;;;;;12.01;100.00;97479.16;7396751;19;20078;-79
2023/01/14 05:58:34;;;;;;;0.20;0.10;;;;;;;11.96;100.00;97471.66;7393205;19;20007;-80
2023/01/14 06:06:39;;;;;;;0.10;0.00;;;;;;;10.04;100.00;97429.63;7397509;19;20043;-79
2023/01/14 06:09:08;;;;;;;0.10;0.10;;;;;;;9.80;100.00;97428.50;7390732;19;20011;-80
2023/01/14 06:11:34;;;;;;;0.45;0.10;;;;;;;12.44;100.00;97417.19;7390214;19;20490;-80
2023/01/14 06:14:02;;;;;;;2.30;0.10;;;;;;;11.51;100.00;97420.97;7389438;19;20011;-79
2023/01/14 06:16:39;;;;;;;0.38;0.15;;;;;;;10.94;100.00;97428.25;7396431;19;20018;-79
2023/01/14 06:19:13;;;;;;;0.10;0.10;;;;;;;10.83;100.00;97408.25;7390689;19;20028;-79
2023/01/14 06:21:40;;;;;;;0.00;0.00;;;;;;;10.87;100.00;97387.13;7394423;19;20101;-79
2023/01/14 06:24:07;;;;;;;0.10;0.00;;;;;;;10.77;100.00;97385.31;7388249;19;20014;-78
2023/01/14 06:26:35;;;;;;;0.00;0.00;;;;;;;10.73;100.00;97370.97;7393282;19;20414;-79
2023/01/14 06:29:04;;;;;;;0.00;0.00;;;;;;;10.71;100.00;97362.41;7388395;19;20014;-78
2023/01/14 06:31:30;;;;;;;0.00;0.00;;;;;;;10.65;100.00;97365.31;7391604;19;20090;-79
2023/01/14 06:33:57;;;;;;;0.73;0.45;;;;;;;10.65;100.00;97362.53;7390744;19;20026;-79
2023/01/14 06:36:24;;;;;;;0.10;0.00;;;;;;;10.63;100.00;97363.06;7395867;19;20132;-79
2023/01/14 06:38:50;;;;;;;0.22;0.00;;;;;;;10.60;100.00;97360.59;7389819;19;20018;-78
2023/01/14 06:41:16;;;;;;;0.00;0.00;;;;;;;10.60;100.00;97358.56;7391732;19;20018;-79
2023/01/14 06:43:42;;;;;;;0.08;0.03;;;;;;;10.65;100.00;97343.06;7387857;19;20010;-78
2023/01/14 06:46:10;;;;;;;0.00;0.00;;;;;;;10.67;100.00;97332.13;7392390;19;20021;-79
2023/01/14 06:48:37;;;;;;;0.20;0.20;;;;;;;10.70;100.00;97335.88;7394647;19;20022;-79
2023/01/14 06:51:12;;;;;;;0.00;0.00;;;;;;;10.63;100.00;97334.50;7390392;19;20006;-80
2023/01/14 06:53:39;;;;;;;0.10;0.00;;;;;;;10.62;100.00;97322.59;7385973;19;20010;-80
2023/01/14 06:56:08;;;;;;;0.32;0.05;;;;;;;10.65;100.00;97304.81;7392611;19;20102;-79
2023/01/14 06:58:34;;;;;;;0.10;0.00;;;;;;;10.89;100.00;97314.22;7390891;19;20035;-79
2023/01/14 07:01:05;;;;;;;0.00;0.00;;;;;;;10.75;100.00;97307.16;7391066;19;20015;-79
2023/01/14 07:03:32;;;;;;;0.05;0.00;;;;;;;10.71;100.00;97304.72;7384323;19;20010;-79
2023/01/14 07:05:59;;;;;;;0.00;0.00;;;;;;;10.73;100.00;97302.16;7392164;19;20366;-79
2023/01/14 07:08:26;;;;;;;0.00;0.00;;;;;;;10.76;100.00;97298.28;7389163;19;20025;-79
2023/01/14 07:10:53;;;;;;;0.10;0.10;;;;;;;11.53;100.00;97284.59;7388313;19;20018;-80
2023/01/14 07:13:21;;;;;;;0.10;0.00;;;;;;;12.51;100.00;97281.75;7388321;19;20039;-79
2023/01/14 07:15:48;;;;;;;0.10;0.10;;;;;;;11.32;100.00;97281.06;7389828;19;20035;-79
2023/01/14 07:18:15;;;;;;;0.17;0.17;;;;;;;14.06;100.00;97279.63;7389751;19;20014;-79
2023/01/14 07:20:41;;;;;;;0.10;0.10;;;;;;;15.44;100.00;97270.94;7389890;19;20014;-79
2023/01/14 07:23:08;;;;;;;0.25;0.15;;;;;;;11.40;100.00;97287.44;7387216;19;20127;-79
2023/01/14 07:25:35;;;;;;;0.00;0.00;;;;;;;11.32;100.00;97292.22;7389672;19;20014;-79
2023/01/14 07:28:02;;;;;;;0.00;0.00;;;;;;;12.90;100.00;97275.78;7386915;19;20060;-79
2023/01/14 07:30:28;;;;;;;0.10;0.00;;;;;;;11.38;100.00;97284.47;7387186;19;20094;-79
2023/01/14 07:32:58;;;;;;;0.10;0.00;;;;;;;13.45;100.00;97279.66;7387173;19;20018;-81
2023/01/14 07:35:24;;;;;;;0.30;0.22;;;;;;;14.91;100.00;97277.56;7388897;19;20022;-79
2023/01/14 07:37:53;;;;;;;0.50;0.38;;;;;;;12.45;100.00;97320.97;7389717;19;20592;-82
2023/01/14 07:40:19;;;;;;;0.10;0.00;;;;;;;11.96;100.00;97337.78;7389243;19;20501;-80
2023/01/14 07:42:45;;;;;;;0.10;0.00;;;;;;;11.75;100.00;97334.25;7388145;19;20022;-80
2023/01/14 07:45:11;;;;;;;0.00;0.00;;;;;;;11.26;100.00;97345.25;7389585;19;20022;-81
2023/01/14 07:47:38;;;;;;;0.00;0.00;;;;;;;11.22;100.00;97350.41;7389191;19;20014;-80
2023/01/14 07:50:04;;;;;;;0.00;0.00;;;;;;;11.04;100.00;97345.78;7389578;19;20037;-81
2023/01/14 07:52:30;;;;;;;0.20;0.20;;;;;;;14.50;100.00;97325.69;7384299;19;20098;-81
2023/01/14 07:54:57;;;;;;;0.70;0.20;;;;;;;11.30;100.00;97328.22;7387319;19;20038;-81
2023/01/14 07:57:23;;;;;;;0.00;0.00;;;;;;;13.02;100.00;97320.88;7388968;19;20663;-81
2023/01/14 07:59:49;;;;;;;1.00;0.28;;;;;;;11.61;100.00;97323.69;7388959;19;20017;-81
2023/01/14 08:02:15;;;;;;;0.05;0.00;;;;;;;10.86;100.00;97329.94;7387661;19;20026;-81
2023/01/14 08:04:41;;;;;;;0.10;0.10;;;;;;;10.76;100.00;97339.28;7388368;19;20011;-81
2023/01/14 08:07:08;;;;;;;0.00;0.00;;;;;;;10.74;100.00;97339.84;7391980;19;20477;-82
2023/01/14 08:09:35;;;;;;;0.00;0.00;;;;;;;10.73;100.00;97338.31;7389948;19;20567;-80
2023/01/14 08:12:01;;;;;;;0.00;0.00;;;;;;;10.55;100.00;97334.38;7390012;19;20039;-81
2023/01/14 08:14:27;;;;;;;0.00;0.00;;;;;;;10.60;100.00;97341.13;7388003;19;20472;-80
2023/01/14 08:16:54;;;;;;;0.00;0.00;;;;;;;10.63;100.00;97335.22;7390272;19;20089;-82
2023/01/14 08:19:20;;;;;;;0.57;0.40;;;;;;;10.64;100.00;97336.72;7388513;19;20096;-80
2023/01/14 08:21:46;;;;;;;0.00;0.00;;;;;;;10.66;100.00;97333.41;7390619;19;20022;-82
2023/01/14 08:24:12;;;;;;;0.10;0.00;;;;;;;10.50;100.00;97332.44;7391057;19;20042;-81
2023/01/14 08:26:38;;;;;;;0.20;0.10;;;;;;;10.49;100.00;97336.53;7389511;19;20022;-81
2023/01/14 08:29:05;;;;;;;0.00;0.00;;;;;;;10.48;100.00;97335.03;7385949;19;20356;-80
2023/01/14 08:31:31;;;;;;;0.47;0.10;;;;;;;10.47;100.00;97344.66;7384393;19;20471;-81
2023/01/14 08:33:59;;;;;;;0.05;0.00;;;;;;;10.60;100.00;97349.47;7385769;19;20503;-81
2023/01/14 08:36:26;;;;;;;0.10;0.00;;;;;;;13.02;100.00;97343.97;7391629;19;20015;-82
2023/01/14 08:38:53;;;;;;;0.03;0.00;;;;;;;11.15;100.00;97353.88;7391168;19;20496;-82
2023/01/14 08:41:19;;;;;;;0.05;0.00;;;;;;;10.85;100.00;97380.63;7390872;19;20987;-81
2023/01/14 08:43:51;;;;;;;0.10;0.00;;;;;;;10.79;100.00;97391.09;7387766;19;20035;-82
2023/01/14 08:46:18;;;;;;;0.05;0.00;;;;;;;10.70;100.00;97411.75;7387676;19;20019;-81
2023/01/14 08:48:45;;;;;;;0.22;0.10;;;;;;;10.54;100.00;97415.63;7391259;19;20035;-82
2023/01/14 08:51:12;;;;;;;0.40;0.03;;;;;;;10.54;100.00;97427.50;7387114;19;20023;-82
2023/01/14 08:53:39;;;;;;;0.73;0.25;;;;;;;10.46;100.00;97426.63;7384610;19;20024;-81
2023/01/14 08:56:07;;;;;;;0.10;0.10;;;;;;;10.49;100.00;97436.72;7388572;19;20415;-81
2023/01/14 08:58:36;;;;;;;0.20;0.10;;;;;;;10.29;100.00;97431.75;7390948;19;20014;-81
2023/01/14 09:01:07;;;;;;;0.17;0.10;;;;;;;10.31;100.00;97443.09;7387287;19;20018;-80
2023/01/14 09:03:35;;;;;;;0.45;0.30;;;;;;;11.28;100.00;97431.09;7391441;19;20015;-82
2023/01/14 09:06:07;;;;;;;0.10;0.10;;;;;;;10.92;100.00;97441.19;7389072;19;20014;-82
2023/01/14 09:19:39;;;;;;;1.65;0.40;;;;;;;10.99;100.00;97421.06;7385591;19;20046;-81
2023/01/14 09:22:06;;;;;;;0.10;0.00;;;;;;;13.14;100.00;97429.00;7386617;19;20403;-81
2023/01/14 09:24:32;;;;;;;0.10;0.00;;;;;;;15.66;100.00;97429.94;7384607;19;20098;-82
2023/01/14 09:26:59;;;;;;;1.52;0.20;;;;;;;17.81;100.00;97425.53;7394659;19;20028;-82
2023/01/14 09:29:25;;;;;;;0.82;0.40;;;;;;;20.75;100.00;97430.41;7393695;19;20018;-81
2023/01/14 09:31:51;;;;;;;0.17;0.10;;;;;;;19.40;100.00;97440.59;7389594;19;20025;-81
2023/01/14 09:34:18;;;;;;;1.00;0.20;;;;;;;17.33;100.00;97447.69;7388820;19;20026;-82
2023/01/14 09:36:44;;;;;;;1.98;0.52;;;;;;;11.78;100.00;97455.84;7395253;19;20025;-82
2023/01/14 09:39:10;;;;;;;0.47;0.35;;;;;;;10.71;100.00;97462.63;7393231;19;20014;-82
2023/01/14 09:41:46;;;;;;;1.65;0.43;;;;;;;10.34;100.00;97469.84;7390851;19;20039;-82
2023/01/14 09:44:12;;;;;;;1.95;1.45;;;;;;;10.20;100.00;97482.22;7392075;19;20018;-81
2023/01/14 09:46:38;;;;;;;1.20;0.30;;;;;;;10.16;100.00;97498.47;7397433;19;20018;-81
2023/01/14 09:49:05;;;;;;;0.20;0.10;;;;;;;10.27;100.00;97498.28;7394341;19;20019;-81
2023/01/14 09:51:59;;;;;;;0.60;0.45;;;;;;;10.34;100.00;97497.69;7390169;19;20052;-81
2023/01/14 09:54:51;;;;;;;0.68;0.22;;;;;;;10.02;100.00;97505.25;7391051;19;20014;-81
2023/01/14 09:57:33;;;;;;;0.47;0.20;;;;;;;10.19;100.00;97500.19;7392081;19;20044;-81
2023/01/14 10:00:37;;;;;;;0.25;0.15;;;;;;;10.18;100.00;97503.53;7391677;19;20006;-81
2023/01/14 10:03:25;;;;;;;0.10;0.10;;;;;;;12.24;100.00;97490.50;7395203;19;20082;-80
2023/01/14 10:06:18;;;;;;;0.43;0.10;;;;;;;10.85;100.00;97489.19;7393328;19;20027;-80
2023/01/14 10:09:06;;;;;;;0.20;0.13;;;;;;;12.13;100.00;97479.63;7391087;19;20070;-80
2023/01/14 10:11:37;;;;;;;1.63;0.40;;;;;;;11.70;100.00;97482.13;7388006;19;20026;-80
2023/01/14 10:14:03;;;;;;;;;;;;;;;17.17;100.00;97482.94;7390976;19;20021;-80
2023/01/14 10:16:37;;;;;;;0.95;0.30;;;;;;;11.11;100.00;97514.28;7390486;19;19922;-80
2023/01/14 10:19:12;;;;;;;0.20;0.10;;;;;;;10.22;100.00;97532.50;7387689;19;20047;-80
2023/01/14 10:21:46;;;;;;;0.10;0.00;;;;;;;9.79;100.00;97532.59;7389388;19;20019;-80
2023/01/14 10:24:14;;;;;;;0.10;0.00;;;;;;;9.56;100.00;97548.09;7389193;19;20029;-80
2023/01/14 10:26:43;;;;;;;0.10;0.10;;;;;;;9.46;100.00;97546.19;7395198;19;20026;-80
2023/01/14 10:29:15;;;;;;;0.17;0.15;;;;;;;9.19;100.00;97548.03;7389879;19;20010;-81
2023/01/14 10:31:47;;;;;;;0.10;0.10;;;;;;;9.63;100.00;97552.28;7390333;19;20023;-80
2023/01/14 10:34:22;;;;;;;2.47;0.20;;;;;;;14.30;100.00;97539.44;7387699;19;20025;-81
2023/01/14 10:36:49;;;;;;;0.10;0.00;;;;;;;9.83;100.00;97555.28;7393798;19;20014;-80
2023/01/14 10:39:15;;;;;;;0.17;0.15;;;;;;;16.58;100.00;97547.56;7391680;19;20018;-81
2023/01/14 10:41:50;;;;;;;0.20;0.20;;;;;;;9.90;100.00;97553.94;7389751;19;20090;-80
2023/01/14 10:44:30;;;;;;;9.90;0.30;;;;;;;11.23;100.00;97574.06;7387830;19;20045;-80
2023/01/14 10:47:01;;;;;;;0.10;0.00;;;;;;;18.25;100.00;97568.41;7396009;19;20046;-80
2023/01/14 10:49:30;;;;;;;0.98;0.90;;;;;;;15.78;100.00;97574.16;7389758;19;20019;-80
2023/01/14 10:51:57;;;;;;;5.50;0.57;;;;;;;10.28;100.00;97583.25;7386544;19;20035;-80
2023/01/14 10:54:24;;;;;;;3.10;0.45;;;;;;;14.33;100.00;97577.53;7386848;19;20018;-80
2023/01/14 10:57:06;;;;;;;2.80;1.25;;;;;;;15.20;100.00;97584.31;7392703;19;20014;-80
2023/01/14 10:59:49;;;;;;;;;;;;;;;14.52;100.00;97594.00;7389926;19;20037;-81
2023/01/14 11:02:31;;;;;;;4.18;1.55;;;;;;;18.62;100.00;97596.13;7391032;19;19927;-80
2023/01/14 11:04:58;;;;;;;2.53;0.73;;;;;;;17.46;100.00;97590.13;7390230;19;20039;-80
2023/01/14 11:07:32;;;;;;;2.45;0.82;;;;;;;17.03;100.00;97602.69;7390198;19;20031;-79
2023/01/14 11:10:02;;;;;;;0.75;0.45;;;;;;;19.48;100.00;97607.00;7390986;19;20606;-81
2023/01/14 11:12:33;;;;;;;9.40;1.27;;;;;;;19.51;98.94;97591.72;7385930;19;20026;-81
2023/01/14 11:15:00;;;;;;;2.22;0.77;;;;;;;19.29;98.45;97604.88;7387187;19;20072;-80
2023/01/14 11:17:28;;;;;;;6.00;0.70;;;;;;;19.74;95.08;97608.25;7385445;19;20017;-81
2023/01/14 11:20:20;;;;;;;0.47;0.10;;;;;;;19.26;94.90;97617.31;7385991;19;20006;-80
2023/01/14 11:23:01;;;;;;;1.35;0.75;;;;;;;11.54;100.00;97614.25;7386296;19;20019;-82
2023/01/14 11:25:28;;;;;;;1.35;0.82;;;;;;;10.35;100.00;97610.44;7389454;19;20058;-81
2023/01/14 11:27:58;;;;;;;9.98;1.75;;;;;;;10.05;100.00;97625.78;7389253;19;20501;-80
2023/01/14 11:30:25;;;;;;;6.47;1.45;;;;;;;9.77;100.00;97606.66;7388696;19;20022;-81
2023/01/14 11:32:55;;;;;;;1.42;0.10;;;;;;;12.18;100.00;97618.25;7387479;19;20729;-80
2023/01/14 11:35:35;;;;;;;6.65;0.73;;;;;;;13.58;100.00;97612.25;7389126;19;20061;-80
2023/01/14 11:38:03;;;;;;;10.05;1.02;;;;;;;17.47;100.00;97600.06;7385828;19;20039;-80
2023/01/14 11:43:21;;;;;;;0.93;0.88;;;;;;;13.43;100.00;97612.16;7386506;19;20038;-80
2023/01/14 11:46:04;;;;;;;2.90;0.68;;;;;;;15.50;100.00;97608.06;7389584;19;20051;-80
2023/01/14 11:48:30;;;;;;;0.65;0.50;;;;;;;18.66;100.00;97602.09;7386498;19;20022;-80
2023/01/14 11:50:58;;;;;;;0.70;0.70;;;;;;;20.45;89.68;97611.38;7386433;19;20129;-80
2023/01/14 11:53:41;;;;;;;3.35;0.98;;;;;;;20.80;85.37;97604.00;7387389;19;20021;-80
2023/01/14 11:56:15;;;;;;;0.60;0.45;;;;;;;18.66;100.00;97601.34;7391790;19;20034;-80
2023/01/14 11:58:41;;;;;;;0.47;0.47;;;;;;;20.69;85.44;97591.22;7387396;19;20026;-80
2023/01/14 12:01:22;;;;;;;0.55;0.55;;;;;;;20.78;83.76;97587.63;7386852;19;20022;-81
2023/01/14 12:03:57;;;;;;;;;;;;;;;20.79;83.91;97589.09;7386488;19;20023;-80
2023/01/14 12:06:30;;;;;;;0.15;0.15;;;;;;;21.30;80.37;97584.16;7387828;19;19930;-82
2023/01/14 12:09:01;;;;;;;0.20;0.10;;;;;;;21.60;79.18;97594.69;7385043;19;20074;-80
2023/01/14 12:11:46;;;;;;;;;;;;;;;22.19;76.74;97583.09;7387177;19;20353;-80
2023/01/14 12:17:26;;;;;;;6.70;0.55;;;;;;;20.93;84.52;97592.94;7388176;19;20018;-80
2023/01/14 12:19:58;;;;;;;1.30;0.20;;;;;;;20.68;82.04;97595.38;7387025;19;20815;-79